createdAt,value
2018-01-05T00:04:30.126Z,97144.48
2018-01-05T00:10:33.678Z,97211.06
2018-01-05T00:16:37.101Z,97173.70
2018-01-05T00:22:41.392Z,97201.79
2018-01-05T00:28:45.701Z,97212.58
2018-01-05T00:34:50.001Z,97222.34
2018-01-05T00:40:53.847Z,97227.98
2018-01-05T00:46:58.749Z,97227.05
2018-01-05T00:53:02.995Z,97246.61
2018-01-05T00:59:06.510Z,97261.99
2018-01-05T01:05:10.012Z,97276.20
2018-01-05T01:11:13.511Z,97297.20
2018-01-05T01:17:16.945Z,97273.41
2018-01-05T01:23:21.231Z,97284.12
2018-01-05T01:29:26.056Z,97292.16
2018-01-05T01:35:29.991Z,97297.09
2018-01-05T01:41:34.235Z,97290.08
2018-01-05T01:47:38.474Z,97309.97
2018-01-05T01:53:42.014Z,97331.30
2018-01-05T01:59:45.511Z,97340.18
2018-01-05T02:05:49.722Z,97349.92
2018-01-05T02:11:53.939Z,97324.47
2018-01-05T02:17:57.943Z,97329.70
2018-01-05T02:24:01.461Z,97347.09
2018-01-05T02:30:04.997Z,97350.38
2018-01-05T02:36:08.504Z,97342.53
2018-01-05T02:42:12.143Z,97343.38
2018-01-05T02:48:16.484Z,97354.13
2018-01-05T02:54:20.141Z,97328.45
2018-01-05T03:00:24.210Z,97338.53
2018-01-05T03:06:27.739Z,97310.56
2018-01-05T03:12:31.426Z,97321.97
2018-01-05T03:18:35.709Z,97297.77
2018-01-05T03:24:39.272Z,97290.48
2018-01-05T03:30:43.515Z,97288.41
2018-01-05T03:36:47.016Z,97301.06
2018-01-05T03:42:51.655Z,97298.72
2018-01-05T03:48:57.029Z,97298.48
2018-01-05T03:55:00.516Z,97286.67
2018-01-05T04:01:03.954Z,97284.11
2018-01-05T04:07:07.514Z,97300.83
2018-01-05T04:13:11.797Z,97316.69
2018-01-05T04:19:15.256Z,97314.45
2018-01-05T04:25:18.783Z,97300.08
2018-01-05T04:31:22.209Z,97310.17
2018-01-05T04:37:25.965Z,97300.86
2018-01-05T04:43:29.423Z,97299.91
2018-01-05T04:49:32.869Z,97281.28
2018-01-05T04:55:36.298Z,97291.55
2018-01-05T05:01:40.702Z,97307.98
2018-01-05T05:07:44.288Z,97322.39
2018-01-05T05:13:47.903Z,97327.11
2018-01-05T05:19:51.365Z,97342.52
2018-01-05T05:25:55.718Z,97332.45
2018-01-05T05:31:59.477Z,97337.48
2018-01-05T05:38:03.247Z,97335.72
2018-01-05T05:44:06.762Z,97343.59
2018-01-05T05:50:10.355Z,97325.07
2018-01-05T05:56:14.071Z,97324.58
2018-01-05T06:02:17.602Z,97333.61
2018-01-05T06:08:21.164Z,97343.09
2018-01-05T06:14:25.121Z,97354.92
2018-01-05T06:20:28.863Z,97352.78
2018-01-05T06:26:32.332Z,97347.95
2018-01-05T06:32:35.985Z,97345.03
2018-01-05T06:38:39.443Z,97342.20
2018-01-05T06:44:43.109Z,97332.42
2018-01-05T06:50:46.843Z,97335.78
2018-01-05T06:56:50.328Z,97334.45
2018-01-05T07:02:54.338Z,97339.87
2018-01-05T07:08:58.178Z,97331.77
2018-01-05T07:15:01.646Z,97334.19
2018-01-05T07:21:06.132Z,97348.57
2018-01-05T07:27:10.319Z,97351.52
2018-01-05T07:33:14.126Z,97347.02
2018-01-05T07:39:17.547Z,97333.31
2018-01-05T07:45:21.161Z,97330.55
2018-01-05T07:51:25.383Z,97353.41
2018-01-05T07:57:28.849Z,97356.38
2018-01-05T08:03:32.386Z,97370.45
2018-01-05T08:09:35.842Z,97364.16
2018-01-05T08:15:39.443Z,97367.94
2018-01-05T08:21:42.894Z,97374.75
2018-01-05T08:27:46.337Z,97383.33
2018-01-05T08:33:49.770Z,97386.58
2018-01-05T08:39:53.533Z,97390.98
2018-01-05T08:45:57.238Z,97400.56
2018-01-05T08:52:01.774Z,97410.55
2018-01-05T08:58:05.238Z,97420.66
2018-01-05T09:04:08.859Z,97431.34
2018-01-05T09:10:12.313Z,97432.55
2018-01-05T09:16:15.782Z,97451.34
2018-01-05T09:22:19.346Z,97448.23
2018-01-05T09:28:22.783Z,97453.34
2018-01-05T09:34:27.059Z,97464.58
2018-01-05T09:40:30.500Z,97470.34
2018-01-05T09:46:33.984Z,97474.71
2018-01-05T09:52:37.508Z,97468.81
2018-01-05T09:58:41.054Z,97481.92
2018-01-05T10:04:44.656Z,97475.62
2018-01-05T10:10:48.706Z,97476.05
2018-01-05T10:16:52.146Z,97482.08
2018-01-05T10:22:56.549Z,97508.59
2018-01-05T10:29:00.239Z,97505.96
2018-01-05T10:35:03.813Z,97504.73
2018-01-05T10:41:07.281Z,97495.95
2018-01-05T10:47:10.785Z,97499.85
2018-01-05T10:53:14.222Z,97498.97
2018-01-05T10:59:17.850Z,97500.78
2018-01-05T11:05:21.292Z,97500.45
2018-01-05T11:11:24.969Z,97505.92
2018-01-05T11:17:28.662Z,97521.24
2018-01-05T11:23:32.847Z,97524.75
2018-01-05T11:29:36.326Z,97500.81
2018-01-05T11:35:40.136Z,97517.97
2018-01-05T11:41:43.584Z,97527.16
2018-01-05T11:47:47.358Z,97537.22
2018-01-05T11:53:50.931Z,97538.78
2018-01-05T11:59:55.292Z,97564.95
2018-01-05T12:05:59.895Z,97562.33
2018-01-05T12:12:04.264Z,97564.52
2018-01-05T12:18:08.654Z,97570.41
2018-01-05T12:24:12.935Z,97574.78
2018-01-05T12:30:16.450Z,97578.58
2018-01-05T12:36:20.105Z,97585.03
2018-01-05T12:42:24.694Z,97589.36
2018-01-05T12:48:29.697Z,97588.36
2018-01-05T12:54:34.145Z,97594.77
2018-01-05T13:00:37.594Z,97595.70
2018-01-05T13:06:41.026Z,97617.39
2018-01-05T13:12:44.541Z,97620.81
2018-01-05T13:18:48.062Z,97622.35
2018-01-05T13:24:51.636Z,97614.14
2018-01-05T13:30:56.092Z,97610.08
2018-01-05T13:36:59.661Z,97640.92
2018-01-05T13:43:04.110Z,97639.71
2018-01-05T13:49:07.653Z,97660.30
2018-01-05T13:55:11.231Z,97639.80
2018-01-05T14:01:14.732Z,97660.54
2018-01-05T14:07:18.381Z,97663.13
2018-01-05T14:13:21.908Z,97653.70
2018-01-05T14:19:25.630Z,97670.08
2018-01-05T14:25:29.313Z,97678.78
2018-01-05T14:31:32.835Z,97676.90
2018-01-05T14:37:36.340Z,97669.77
2018-01-05T14:43:40.553Z,97676.73
2018-01-05T14:49:44.013Z,97683.09
2018-01-05T14:55:47.712Z,97677.65
2018-01-05T15:01:51.210Z,97682.25
2018-01-05T15:07:54.950Z,97694.80
2018-01-05T15:13:58.766Z,97702.11
2018-01-05T15:20:02.215Z,97697.19
2018-01-05T15:26:05.708Z,97693.21
2018-01-05T15:32:09.231Z,97726.53
2018-01-05T15:38:12.767Z,97739.68
2018-01-05T15:44:16.280Z,97740.45
2018-01-05T15:50:19.742Z,97738.02
2018-01-05T15:56:23.175Z,97752.25
2018-01-05T16:02:27.506Z,97742.87
2018-01-05T16:08:30.968Z,97737.03
2018-01-05T16:14:34.562Z,97739.41
2018-01-05T16:20:38.882Z,97749.69
2018-01-05T16:26:42.415Z,97756.78
2018-01-05T16:32:45.928Z,97762.91
2018-01-05T16:38:49.458Z,97767.34
2018-01-05T16:44:53.320Z,97756.21
2018-01-05T16:50:56.980Z,97771.05
2018-01-05T16:57:00.727Z,97774.31
2018-01-05T17:03:04.230Z,97785.54
2018-01-05T17:09:07.835Z,97763.08
2018-01-05T17:15:11.303Z,97776.75
2018-01-05T17:21:14.887Z,97790.16
2018-01-05T17:27:18.419Z,97790.23
2018-01-05T17:33:21.858Z,97785.76
2018-01-05T17:39:26.251Z,97789.34
2018-01-05T17:45:30.517Z,97780.23
2018-01-05T17:51:33.952Z,97790.16
2018-01-05T17:57:37.419Z,97798.14
2018-01-05T18:03:40.979Z,97797.94
2018-01-05T18:09:44.527Z,97801.52
2018-01-05T18:15:48.027Z,97825.84
2018-01-05T18:21:52.395Z,97833.81
2018-01-05T18:27:56.505Z,97831.34
2018-01-05T18:34:00.089Z,97842.08
2018-01-05T18:40:03.710Z,97822.98
2018-01-05T18:46:07.334Z,97821.73
2018-01-05T18:52:11.686Z,97841.38
2018-01-05T18:58:15.207Z,97829.95
2018-01-05T19:04:18.733Z,97825.14
2018-01-05T19:10:23.164Z,97824.71
2018-01-05T19:16:27.288Z,97842.94
2018-01-05T19:22:30.997Z,97840.38
2018-01-05T19:28:35.285Z,97853.06
2018-01-05T19:34:38.781Z,97871.64
2018-01-05T19:40:42.276Z,97860.94
2018-01-05T19:46:45.854Z,97841.70
2018-01-05T19:52:49.454Z,97826.34
2018-01-05T19:58:53.419Z,97835.06
2018-01-05T20:04:57.363Z,97843.03
2018-01-05T20:11:00.914Z,97852.84
2018-01-05T20:17:04.412Z,97868.16
2018-01-05T20:23:07.906Z,97882.59
2018-01-05T20:29:12.239Z,97887.48
2018-01-05T20:35:16.567Z,97892.72
2018-01-05T20:41:20.360Z,97883.11
2018-01-05T20:47:24.147Z,97891.39
2018-01-05T20:53:28.460Z,97894.05
2018-01-05T20:59:32.263Z,97898.94
2018-01-05T21:05:35.936Z,97913.16
2018-01-05T21:11:39.367Z,97921.56
2018-01-05T21:17:42.942Z,97922.20
2018-01-05T21:23:46.430Z,97929.17
2018-01-05T21:29:50.709Z,97938.02
2018-01-05T21:35:55.344Z,97949.17
2018-01-05T21:41:58.926Z,97949.56
2018-01-05T21:48:02.432Z,97966.25
2018-01-05T21:54:05.897Z,97966.87
2018-01-05T22:00:09.645Z,97972.19
2018-01-05T22:06:13.255Z,97974.35
2018-01-05T22:12:16.774Z,97978.34
2018-01-05T22:18:20.253Z,97988.27
2018-01-05T22:24:24.454Z,97982.64
2018-01-05T22:30:29.249Z,97977.12
2018-01-05T22:36:32.819Z,97976.48
2018-01-05T22:42:36.407Z,97982.44
2018-01-05T22:48:39.931Z,97976.70
2018-01-05T22:54:43.667Z,97977.20
2018-01-05T23:00:47.275Z,97994.63
2018-01-05T23:06:50.886Z,98007.84
2018-01-05T23:12:55.014Z,98022.97
2018-01-05T23:18:58.751Z,98025.66
2018-01-05T23:25:02.430Z,98035.78
2018-01-05T23:31:07.549Z,98048.97
2018-01-05T23:37:12.028Z,98051.03
2018-01-05T23:43:15.524Z,98050.70
2018-01-05T23:49:19.233Z,98067.23
2018-01-05T23:55:22.708Z,98075.75
